createdAt,value
2019-02-17T00:02:04.961Z,-1.70
2019-02-17T00:04:33.876Z,-1.70
2019-02-17T00:07:03.832Z,-1.80
2019-02-17T00:09:32.681Z,-1.80
2019-02-17T00:12:01.708Z,-1.90
2019-02-17T00:14:30.796Z,-1.90
2019-02-17T00:16:59.904Z,-1.90
2019-02-17T00:19:28.966Z,-2.00
2019-02-17T00:21:58.009Z,-2.00
2019-02-17T00:24:26.817Z,-2.00
2019-02-17T00:26:55.905Z,-2.00
2019-02-17T00:29:25.040Z,-2.10
2019-02-17T00:31:53.851Z,-2.10
2019-02-17T00:34:22.922Z,-2.10
2019-02-17T00:36:51.706Z,-2.10
2019-02-17T00:39:20.557Z,-2.10
2019-02-17T00:41:49.411Z,-2.10
2019-02-17T00:44:18.244Z,-2.10
2019-02-17T00:46:47.053Z,-2.20
2019-02-17T00:49:16.137Z,-2.20
2019-02-17T00:51:45.241Z,-2.20
2019-02-17T00:54:14.052Z,-2.30
2019-02-17T00:56:42.824Z,-2.40
2019-02-17T00:59:11.929Z,-2.40
2019-02-17T01:01:41.005Z,-2.40
2019-02-17T01:04:09.812Z,-2.40
2019-02-17T01:06:38.709Z,-2.40
2019-02-17T01:09:07.958Z,-2.30
2019-02-17T01:11:36.870Z,-2.40
2019-02-17T01:14:05.818Z,-2.40
2019-02-17T01:16:34.905Z,-2.40
2019-02-17T01:19:04.073Z,-2.40
2019-02-17T01:21:32.850Z,-2.40
2019-02-17T01:24:01.620Z,-2.50
2019-02-17T01:26:30.488Z,-2.50
2019-02-17T01:28:59.536Z,-2.40
2019-02-17T01:31:28.698Z,-2.40
2019-02-17T01:33:57.812Z,-2.40
2019-02-17T01:36:26.848Z,-2.30
2019-02-17T01:38:55.881Z,-2.30
2019-02-17T01:41:24.813Z,-2.40
2019-02-17T01:43:53.589Z,-2.40
2019-02-17T01:46:22.524Z,-2.50
2019-02-17T01:48:51.359Z,-2.60
2019-02-17T01:51:20.226Z,-2.60
2019-02-17T01:53:49.054Z,-2.70
2019-02-17T01:56:18.105Z,-2.70
2019-02-17T01:58:46.917Z,-2.70
2019-02-17T02:01:17.337Z,-2.70
2019-02-17T02:03:46.293Z,-2.70
2019-02-17T02:06:15.245Z,-2.80
2019-02-17T02:08:44.297Z,-2.80
2019-02-17T02:11:13.333Z,-2.80
2019-02-17T02:13:42.388Z,-2.80
2019-02-17T02:16:11.197Z,-2.80
2019-02-17T02:18:40.004Z,-2.90
2019-02-17T02:21:08.778Z,-2.90
2019-02-17T02:23:37.882Z,-2.90
2019-02-17T02:26:06.753Z,-2.90
2019-02-17T02:28:35.538Z,-3.00
2019-02-17T02:31:04.457Z,-3.00
2019-02-17T02:33:33.516Z,-3.00
2019-02-17T02:36:02.639Z,-3.00
2019-02-17T02:38:31.444Z,-3.00
2019-02-17T02:41:00.263Z,-3.00
2019-02-17T02:43:29.021Z,-3.10
2019-02-17T02:45:57.793Z,-3.10
2019-02-17T02:48:26.710Z,-3.10
2019-02-17T02:50:55.485Z,-3.10
2019-02-17T02:53:24.712Z,-3.10
2019-02-17T02:55:53.743Z,-3.20
2019-02-17T02:58:22.506Z,-3.20
2019-02-17T03:00:51.315Z,-3.20
2019-02-17T03:03:20.640Z,-3.20
2019-02-17T03:05:58.993Z,-3.20
2019-02-17T03:08:28.745Z,-3.20
2019-02-17T03:10:57.529Z,-3.20
2019-02-17T03:13:26.317Z,-3.20
2019-02-17T03:15:55.138Z,-3.30
2019-02-17T03:18:24.676Z,-3.30
2019-02-17T03:20:53.754Z,-3.30
2019-02-17T03:23:22.598Z,-3.30
2019-02-17T03:25:51.504Z,-3.30
2019-02-17T03:28:21.588Z,-3.30
2019-02-17T03:30:50.642Z,-3.30
2019-02-17T03:33:19.444Z,-3.30
2019-02-17T03:35:48.255Z,-3.30
2019-02-17T03:38:16.169Z,-3.40
2019-02-17T03:40:44.020Z,-3.40
2019-02-17T03:43:12.072Z,-3.40
2019-02-17T03:45:40.117Z,-3.40
2019-02-17T03:48:07.976Z,-3.40
2019-02-17T03:50:35.873Z,-3.40
2019-02-17T03:53:03.750Z,-3.40
2019-02-17T03:55:31.664Z,-3.40
2019-02-17T03:57:59.531Z,-3.40
2019-02-17T04:00:27.702Z,-3.40
2019-02-17T04:02:55.893Z,-3.50
2019-02-17T04:05:24.031Z,-3.60
2019-02-17T04:07:51.904Z,-3.60
2019-02-17T04:10:20.275Z,-3.70
2019-02-17T04:12:48.227Z,-3.60
2019-02-17T04:15:16.121Z,-3.60
2019-02-17T04:17:44.025Z,-3.70
2019-02-17T04:20:12.128Z,-3.70
2019-02-17T04:22:40.000Z,-3.80
2019-02-17T04:25:08.254Z,-3.80
2019-02-17T04:27:36.389Z,-3.80
2019-02-17T04:30:04.381Z,-3.80
2019-02-17T04:32:32.578Z,-3.80
2019-02-17T04:35:00.764Z,-3.70
2019-02-17T04:37:28.633Z,-3.70
2019-02-17T04:39:56.758Z,-3.70
2019-02-17T04:42:24.633Z,-3.70
2019-02-17T04:44:52.507Z,-3.70
2019-02-17T04:47:20.859Z,-3.70
2019-02-17T04:49:48.795Z,-3.70
2019-02-17T04:52:16.967Z,-3.80
2019-02-17T04:54:45.366Z,-3.80
2019-02-17T04:57:13.341Z,-3.80
2019-02-17T04:59:41.230Z,-3.80
2019-02-17T05:02:09.117Z,-3.80
2019-02-17T05:04:37.070Z,-3.80
2019-02-17T05:07:05.049Z,-3.80
2019-02-17T05:09:33.220Z,-3.80
2019-02-17T05:12:01.101Z,-3.80
2019-02-17T05:14:29.036Z,-3.80
2019-02-17T05:16:56.941Z,-3.80
2019-02-17T05:19:24.982Z,-3.80
2019-02-17T05:21:53.005Z,-3.80
2019-02-17T05:24:20.903Z,-3.80
2019-02-17T05:26:48.997Z,-3.90
2019-02-17T05:29:16.943Z,-3.90
2019-02-17T05:31:44.848Z,-3.80
2019-02-17T05:34:12.760Z,-3.90
2019-02-17T05:36:40.720Z,-3.90
2019-02-17T05:39:08.813Z,-3.90
2019-02-17T05:41:36.738Z,-3.90
2019-02-17T05:44:04.622Z,-4.00
2019-02-17T05:46:32.617Z,-4.00
2019-02-17T05:49:00.686Z,-4.00
2019-02-17T05:51:28.744Z,-4.10
2019-02-17T05:53:56.740Z,-4.10
2019-02-17T05:56:24.689Z,-4.10
2019-02-17T05:58:52.762Z,-4.10
2019-02-17T06:01:20.673Z,-4.20
2019-02-17T06:03:48.589Z,-4.20
2019-02-17T06:06:17.090Z,-4.20
2019-02-17T06:08:45.049Z,-4.20
2019-02-17T06:11:13.041Z,-4.20
2019-02-17T06:13:40.970Z,-4.20
2019-02-17T06:16:08.897Z,-4.30
2019-02-17T06:18:36.775Z,-4.30
2019-02-17T06:21:04.769Z,-4.30
2019-02-17T06:23:35.267Z,-4.40
2019-02-17T06:26:04.428Z,-4.40
2019-02-17T06:28:32.478Z,-4.40
2019-02-17T06:31:00.435Z,-4.40
2019-02-17T06:33:28.335Z,-4.40
2019-02-17T06:35:56.317Z,-4.40
2019-02-17T06:38:24.229Z,-4.30
2019-02-17T06:40:52.180Z,-4.30
2019-02-17T06:43:20.058Z,-4.30
2019-02-17T06:45:48.167Z,-4.30
2019-02-17T06:48:16.177Z,-4.30
2019-02-17T06:50:44.064Z,-4.30
2019-02-17T06:53:12.039Z,-4.20
2019-02-17T06:55:54.285Z,-4.20
2019-02-17T06:58:22.507Z,-4.10
2019-02-17T07:00:52.804Z,-4.00
2019-02-17T07:03:21.091Z,-4.00
2019-02-17T07:06:14.504Z,-3.90
2019-02-17T07:08:42.437Z,-3.80
2019-02-17T07:11:11.536Z,-3.70
2019-02-17T07:13:39.449Z,-3.60
2019-02-17T07:16:07.527Z,-3.50
2019-02-17T07:18:35.724Z,-3.40
2019-02-17T07:21:04.072Z,-3.30
2019-02-17T07:23:32.373Z,-3.10
2019-02-17T07:26:00.302Z,-3.00
2019-02-17T07:28:28.219Z,-2.90
2019-02-17T07:30:56.145Z,-2.80
2019-02-17T07:33:24.287Z,-2.60
2019-02-17T07:35:52.517Z,-2.40
2019-02-17T07:38:20.560Z,-2.20
2019-02-17T07:40:48.800Z,-2.10
2019-02-17T07:43:17.083Z,-1.90
2019-02-17T07:45:45.337Z,-1.70
2019-02-17T07:48:13.605Z,-1.20
2019-02-17T07:50:41.698Z,-0.80
2019-02-17T07:53:10.002Z,-0.50
2019-02-17T07:55:37.973Z,-0.30
2019-02-17T07:58:05.860Z,-0.10
2019-02-17T08:00:33.838Z,0.00
2019-02-17T08:03:02.058Z,0.20
2019-02-17T08:05:29.936Z,0.30
2019-02-17T08:08:19.587Z,0.50
2019-02-17T08:10:47.216Z,0.60
2019-02-17T08:13:15.068Z,0.80
2019-02-17T08:15:43.208Z,1.00
2019-02-17T08:18:11.132Z,1.20
2019-02-17T08:20:39.028Z,1.40
2019-02-17T08:23:07.334Z,1.60
2019-02-17T08:25:35.579Z,1.90
2019-02-17T08:28:03.486Z,2.10
2019-02-17T08:30:31.606Z,2.40
2019-02-17T08:32:59.772Z,2.60
2019-02-17T08:35:27.672Z,2.80
2019-02-17T08:37:55.964Z,3.10
2019-02-17T08:40:23.864Z,3.40
2019-02-17T08:42:52.096Z,3.60
2019-02-17T08:45:24.257Z,3.90
2019-02-17T08:47:49.771Z,4.10
2019-02-17T08:50:19.940Z,4.40
2019-02-17T08:52:47.314Z,4.70
2019-02-17T08:55:15.495Z,5.00
2019-02-17T08:57:43.474Z,5.20
2019-02-17T09:00:11.672Z,5.40
2019-02-17T09:02:41.168Z,5.60
2019-02-17T09:05:10.513Z,5.80
2019-02-17T09:07:45.609Z,6.00
2019-02-17T09:10:13.950Z,6.20
2019-02-17T09:13:00.938Z,6.50
2019-02-17T09:16:27.281Z,6.70
2019-02-17T09:21:27.992Z,7.20
2019-02-17T09:24:36.957Z,7.40
2019-02-17T09:27:06.831Z,7.70
2019-02-17T09:29:39.184Z,8.00
2019-02-17T09:32:16.126Z,8.10
2019-02-17T09:34:37.527Z,8.40
2019-02-17T09:37:15.699Z,8.60
2019-02-17T09:39:58.842Z,8.90
2019-02-17T09:42:45.503Z,9.00
2019-02-17T09:48:14.373Z,9.50
2019-02-17T09:50:43.810Z,9.80
2019-02-17T09:53:30.491Z,10.00
2019-02-17T09:55:59.998Z,10.10
2019-02-17T09:59:10.965Z,10.40
2019-02-17T10:04:49.314Z,10.90
2019-02-17T10:07:20.641Z,11.20
2019-02-17T10:09:49.646Z,11.30
2019-02-17T10:12:30.853Z,11.60
2019-02-17T10:15:12.340Z,11.80
2019-02-17T10:18:02.478Z,11.90
2019-02-17T10:20:35.835Z,12.10
2019-02-17T10:23:04.726Z,12.50
2019-02-17T10:25:40.376Z,12.70
2019-02-17T10:28:42.582Z,12.90
2019-02-17T10:37:48.013Z,13.50
2019-02-17T10:40:17.276Z,13.70
2019-02-17T10:42:45.588Z,13.90
2019-02-17T10:45:14.068Z,14.10
2019-02-17T10:47:41.930Z,14.20
2019-02-17T10:50:09.976Z,14.40
2019-02-17T10:52:37.941Z,14.50
2019-02-17T10:55:05.912Z,14.70
2019-02-17T10:57:34.097Z,14.80
2019-02-17T11:00:02.194Z,14.90
2019-02-17T11:02:30.464Z,15.00
2019-02-17T11:04:58.443Z,15.20
2019-02-17T11:07:26.601Z,15.30
2019-02-17T11:09:54.569Z,15.50
2019-02-17T11:12:23.645Z,15.70
2019-02-17T11:14:51.789Z,15.90
2019-02-17T11:17:19.786Z,16.10
2019-02-17T11:19:48.100Z,16.20
2019-02-17T11:22:22.920Z,16.30
2019-02-17T11:24:45.721Z,16.60
2019-02-17T11:27:13.720Z,16.90
2019-02-17T11:29:42.113Z,17.00
2019-02-17T11:32:10.377Z,17.30
2019-02-17T11:34:38.267Z,17.40
2019-02-17T11:37:06.266Z,17.80
2019-02-17T11:39:34.201Z,17.90
2019-02-17T11:42:02.209Z,17.90
2019-02-17T11:44:31.905Z,18.20
2019-02-17T11:46:59.981Z,18.30
2019-02-17T11:49:27.859Z,18.50
2019-02-17T11:51:55.890Z,18.50
2019-02-17T11:54:23.728Z,18.80
2019-02-17T11:56:51.887Z,18.90
2019-02-17T11:59:20.109Z,19.00
2019-02-17T12:01:48.022Z,19.10
2019-02-17T12:04:16.944Z,19.00
2019-02-17T12:06:45.347Z,19.00
2019-02-17T12:09:13.312Z,18.90
2019-02-17T12:11:41.212Z,18.90
2019-02-17T12:14:09.115Z,18.90
2019-02-17T12:16:37.418Z,19.00
2019-02-17T12:19:05.416Z,19.40
2019-02-17T12:21:52.493Z,19.70
2019-02-17T12:24:27.767Z,20.20
2019-02-17T12:27:00.843Z,20.60
2019-02-17T12:29:38.576Z,20.60
2019-02-17T12:32:07.663Z,20.90
2019-02-17T12:34:35.548Z,21.10
2019-02-17T12:37:03.542Z,21.20
2019-02-17T12:39:31.417Z,21.50
2019-02-17T12:41:59.420Z,21.40
2019-02-17T12:44:27.635Z,21.70
2019-02-17T12:46:55.508Z,22.10
2019-02-17T12:49:23.429Z,22.30
2019-02-17T12:51:51.292Z,22.50
2019-02-17T12:54:28.685Z,22.50
2019-02-17T12:56:48.900Z,22.50
2019-02-17T12:59:16.904Z,22.60
2019-02-17T13:01:45.422Z,22.70
2019-02-17T13:04:13.548Z,22.60
2019-02-17T13:06:41.427Z,22.60
2019-02-17T13:09:09.407Z,22.40
2019-02-17T13:11:37.304Z,22.40
2019-02-17T13:14:05.311Z,22.50
2019-02-17T13:16:34.109Z,22.50
2019-02-17T13:19:02.961Z,22.50
2019-02-17T13:21:31.800Z,22.40
2019-02-17T13:24:00.732Z,22.30
2019-02-17T13:26:29.582Z,22.00
2019-02-17T13:28:58.427Z,21.70
2019-02-17T13:31:27.392Z,21.20
2019-02-17T13:33:56.309Z,21.00
2019-02-17T13:36:25.213Z,20.70
2019-02-17T13:38:54.060Z,20.40
2019-02-17T13:41:23.101Z,20.30
2019-02-17T13:43:52.166Z,20.20
2019-02-17T13:46:21.010Z,20.00
2019-02-17T13:48:49.882Z,19.90
2019-02-17T13:51:21.967Z,19.80
2019-02-17T13:53:50.793Z,19.60
2019-02-17T13:56:19.684Z,19.50
2019-02-17T13:58:48.717Z,19.20
2019-02-17T14:01:17.858Z,19.00
2019-02-17T14:03:48.798Z,18.90
2019-02-17T14:06:17.271Z,18.90
2019-02-17T14:08:46.146Z,18.70
2019-02-17T14:11:15.259Z,18.50
2019-02-17T14:13:44.119Z,18.50
2019-02-17T14:16:12.964Z,18.40
2019-02-17T14:18:41.804Z,18.30
2019-02-17T14:21:10.704Z,18.20
2019-02-17T14:23:39.729Z,18.00
2019-02-17T14:26:08.520Z,17.90
2019-02-17T14:28:37.610Z,17.80
2019-02-17T14:31:06.529Z,17.70
2019-02-17T14:33:35.388Z,17.50
2019-02-17T14:36:04.225Z,17.30
2019-02-17T14:38:33.276Z,17.10
2019-02-17T14:41:02.389Z,16.80
2019-02-17T14:43:31.409Z,16.70
2019-02-17T14:46:00.249Z,16.50
2019-02-17T14:48:29.122Z,16.30
2019-02-17T14:50:58.298Z,16.10
2019-02-17T14:53:27.084Z,16.10
2019-02-17T14:55:56.198Z,16.00
2019-02-17T14:58:24.381Z,15.90
2019-02-17T15:17:14.872Z,18.40
2019-02-17T15:19:43.717Z,17.50
2019-02-17T15:25:41.383Z,16.20
2019-02-17T15:28:10.492Z,15.70
2019-02-17T15:30:39.621Z,15.50
2019-02-17T15:33:08.770Z,15.20
2019-02-17T15:35:37.581Z,15.00
2019-02-17T15:38:06.625Z,14.70
2019-02-17T15:40:35.486Z,14.30
2019-02-17T15:43:04.531Z,14.00
2019-02-17T15:45:33.503Z,13.70
2019-02-17T15:48:02.365Z,13.50
2019-02-17T15:50:31.224Z,13.30
2019-02-17T15:53:00.236Z,13.00
2019-02-17T15:55:29.297Z,12.80
2019-02-17T15:57:58.098Z,12.60
2019-02-17T16:00:27.145Z,12.50
2019-02-17T16:02:55.942Z,12.40
2019-02-17T16:05:24.782Z,12.30
2019-02-17T16:07:53.725Z,12.10
2019-02-17T16:10:22.517Z,12.00
2019-02-17T16:12:51.396Z,11.90
2019-02-17T16:15:20.358Z,11.90
2019-02-17T16:17:49.616Z,11.80
2019-02-17T16:20:18.641Z,11.70
2019-02-17T16:22:47.993Z,11.60
2019-02-17T16:25:17.361Z,11.50
2019-02-17T16:27:46.229Z,11.30
2019-02-17T16:30:15.618Z,11.30
2019-02-17T16:32:44.541Z,11.30
2019-02-17T16:35:13.337Z,11.20
2019-02-17T16:37:42.275Z,11.10
2019-02-17T16:40:12.012Z,10.90
2019-02-17T16:42:40.824Z,10.80
2019-02-17T16:45:11.014Z,10.60
2019-02-17T16:47:40.372Z,10.30
2019-02-17T16:50:11.851Z,10.10
2019-02-17T16:52:41.293Z,9.90
2019-02-17T16:55:11.002Z,9.70
2019-02-17T16:57:41.063Z,9.50
2019-02-17T17:00:12.040Z,9.30
2019-02-17T17:02:41.120Z,9.20
2019-02-17T17:05:10.469Z,9.10
2019-02-17T17:07:39.518Z,8.90
2019-02-17T17:10:08.734Z,8.70
2019-02-17T17:12:37.793Z,8.50
2019-02-17T17:15:06.896Z,8.30
2019-02-17T17:17:35.686Z,8.10
2019-02-17T17:20:04.833Z,7.90
2019-02-17T17:22:34.009Z,7.90
2019-02-17T17:25:02.957Z,7.80
2019-02-17T17:27:31.827Z,7.70
2019-02-17T17:30:00.687Z,7.70
2019-02-17T17:32:29.824Z,7.50
2019-02-17T17:34:59.424Z,7.40
2019-02-17T17:37:28.670Z,7.30
2019-02-17T17:39:57.797Z,7.20
2019-02-17T17:44:49.460Z,7.10
2019-02-17T17:47:18.540Z,6.80
2019-02-17T17:49:48.020Z,6.60
2019-02-17T17:52:16.825Z,6.40
2019-02-17T17:54:46.121Z,6.20
2019-02-17T17:57:15.161Z,6.10
2019-02-17T17:59:43.989Z,6.10
2019-02-17T18:02:12.917Z,6.00
2019-02-17T18:04:42.084Z,5.90
2019-02-17T18:07:11.141Z,5.70
2019-02-17T18:09:39.949Z,5.50
2019-02-17T18:12:08.863Z,5.30
2019-02-17T18:14:38.157Z,5.10
2019-02-17T18:17:07.453Z,5.00
2019-02-17T18:19:36.668Z,4.90
2019-02-17T18:22:05.629Z,4.90
2019-02-17T18:24:34.751Z,4.70
2019-02-17T18:27:04.780Z,4.60
2019-02-17T18:29:33.949Z,4.60
2019-02-17T18:32:03.273Z,4.60
2019-02-17T18:34:32.293Z,4.70
2019-02-17T18:37:01.313Z,4.70
2019-02-17T18:39:30.855Z,4.90
2019-02-17T18:41:59.928Z,5.00
2019-02-17T18:44:29.799Z,4.90
2019-02-17T18:46:58.867Z,4.90
2019-02-17T18:49:28.162Z,4.80
2019-02-17T18:51:57.028Z,4.70
2019-02-17T18:54:26.080Z,4.60
2019-02-17T18:56:55.050Z,4.50
2019-02-17T18:59:24.094Z,4.40
2019-02-17T19:01:53.286Z,4.30
2019-02-17T19:04:22.229Z,4.20
2019-02-17T19:06:51.643Z,4.10
2019-02-17T19:09:20.647Z,4.00
2019-02-17T19:11:49.984Z,3.90
2019-02-17T19:14:18.950Z,3.80
2019-02-17T19:16:48.053Z,3.70
2019-02-17T19:19:17.247Z,3.70
2019-02-17T19:21:46.335Z,3.60
2019-02-17T19:24:15.321Z,3.60
2019-02-17T19:26:44.548Z,3.60
2019-02-17T19:29:13.857Z,3.60
2019-02-17T19:31:42.897Z,3.60
2019-02-17T19:34:11.785Z,3.50
2019-02-17T19:36:40.576Z,3.40
2019-02-17T19:39:09.513Z,3.20
2019-02-17T19:41:38.453Z,3.00
2019-02-17T19:44:07.288Z,2.90
2019-02-17T19:46:36.213Z,2.80
2019-02-17T19:49:05.237Z,2.70
2019-02-17T19:51:34.144Z,2.60
2019-02-17T19:54:03.290Z,2.50
2019-02-17T19:56:32.718Z,2.40
2019-02-17T19:59:01.999Z,2.30
2019-02-17T20:01:31.317Z,2.30
2019-02-17T20:04:18.264Z,2.20
2019-02-17T20:06:47.998Z,2.10
2019-02-17T20:09:19.175Z,2.00
2019-02-17T20:11:52.237Z,2.00
2019-02-17T20:14:21.341Z,1.90
2019-02-17T20:16:50.439Z,1.80
2019-02-17T20:19:19.344Z,1.70
2019-02-17T20:21:48.256Z,1.60
2019-02-17T20:24:17.462Z,1.50
2019-02-17T20:26:46.396Z,1.40
2019-02-17T20:29:15.298Z,1.30
2019-02-17T20:31:44.205Z,1.30
2019-02-17T20:34:14.628Z,1.30
2019-02-17T20:36:43.592Z,1.20
2019-02-17T20:39:12.833Z,1.10
2019-02-17T20:41:41.700Z,1.10
2019-02-17T20:44:10.881Z,1.00
2019-02-17T20:46:40.033Z,1.00
2019-02-17T20:49:08.880Z,0.90
2019-02-17T20:51:37.862Z,0.80
2019-02-17T20:54:06.661Z,0.80
2019-02-17T20:56:35.688Z,0.70
2019-02-17T20:59:04.621Z,0.60
2019-02-17T21:01:33.777Z,0.50
2019-02-17T21:04:02.585Z,0.50
2019-02-17T21:06:31.401Z,0.50
2019-02-17T21:09:00.754Z,0.50
2019-02-17T21:11:29.617Z,0.40
2019-02-17T21:13:58.929Z,0.40
2019-02-17T21:16:27.905Z,0.30
2019-02-17T21:18:56.944Z,0.30
2019-02-17T21:21:26.125Z,0.20
2019-02-17T21:23:54.901Z,0.20
2019-02-17T21:26:26.409Z,0.20
2019-02-17T21:28:54.551Z,0.20
2019-02-17T21:31:23.529Z,0.10
2019-02-17T21:33:52.804Z,0.10
2019-02-17T21:36:23.445Z,0.10
2019-02-17T21:38:52.377Z,0.10
2019-02-17T21:41:21.813Z,0.10
2019-02-17T21:43:50.855Z,0.10
2019-02-17T21:46:19.626Z,0.00
2019-02-17T21:48:48.438Z,-0.10
2019-02-17T21:51:17.518Z,-0.10
2019-02-17T21:53:46.369Z,-0.20
2019-02-17T21:56:15.181Z,-0.30
2019-02-17T21:58:44.017Z,-0.30
2019-02-17T22:01:13.097Z,-0.30
2019-02-17T22:03:42.147Z,-0.30
2019-02-17T22:06:11.000Z,-0.40
2019-02-17T22:08:39.810Z,-0.40
2019-02-17T22:11:08.597Z,-0.50
2019-02-17T22:13:37.409Z,-0.50
2019-02-17T22:16:06.280Z,-0.50
2019-02-17T22:18:35.445Z,-0.50
2019-02-17T22:21:04.430Z,-0.60
2019-02-17T22:23:33.298Z,-0.60
2019-02-17T22:26:02.203Z,-0.70
2019-02-17T22:28:31.318Z,-0.70
2019-02-17T22:31:00.123Z,-0.60
2019-02-17T22:33:28.896Z,-0.50
2019-02-17T22:35:57.972Z,-0.50
2019-02-17T22:38:26.904Z,-0.50
2019-02-17T22:40:55.805Z,-0.40
2019-02-17T22:43:24.856Z,-0.50
2019-02-17T22:45:53.931Z,-0.50
2019-02-17T22:48:22.961Z,-0.60
2019-02-17T22:50:51.774Z,-0.70
2019-02-17T22:53:20.587Z,-0.70
2019-02-17T22:55:49.398Z,-0.80
2019-02-17T22:58:18.274Z,-0.90
2019-02-17T23:00:58.170Z,-0.90
2019-02-17T23:03:27.605Z,-1.00
2019-02-17T23:05:57.077Z,-1.00
2019-02-17T23:08:26.196Z,-1.00
2019-02-17T23:10:55.325Z,-1.10
2019-02-17T23:13:24.809Z,-1.10
2019-02-17T23:15:53.695Z,-1.20
2019-02-17T23:18:22.635Z,-1.20
2019-02-17T23:20:51.709Z,-1.10
2019-02-17T23:23:20.756Z,-1.10
2019-02-17T23:25:49.814Z,-1.20
2019-02-17T23:28:18.627Z,-1.20
2019-02-17T23:30:48.023Z,-1.20
2019-02-17T23:33:17.031Z,-1.20
2019-02-17T23:35:46.397Z,-1.20
2019-02-17T23:38:15.392Z,-1.20
2019-02-17T23:40:44.470Z,-1.20
2019-02-17T23:43:13.782Z,-1.30
2019-02-17T23:45:44.630Z,-1.30
2019-02-17T23:48:13.889Z,-1.30
2019-02-17T23:50:42.974Z,-1.40
2019-02-17T23:53:12.058Z,-1.40
2019-02-17T23:55:40.951Z,-1.40
2019-02-17T23:58:10.306Z,-1.50
